createdAt,value
2022-10-17T00:01:17.562Z,99654.16
2022-10-17T00:05:18.940Z,99653.31
2022-10-17T00:09:20.294Z,99654.31
2022-10-17T00:13:21.794Z,99652.59
2022-10-17T00:17:23.161Z,99643.03
2022-10-17T00:21:24.876Z,99640.44
2022-10-17T00:25:26.552Z,99639.50
2022-10-17T00:29:27.866Z,99649.09
2022-10-17T00:33:29.576Z,99656.91
2022-10-17T00:37:31.477Z,99655.16
2022-10-17T00:41:33.447Z,99652.56
2022-10-17T00:45:34.806Z,99659.53
2022-10-17T00:49:36.840Z,99654.34
2022-10-17T00:53:39.306Z,99662.19
2022-10-17T00:57:41.340Z,99663.09
2022-10-17T01:01:46.874Z,99663.13
2022-10-17T01:05:48.266Z,99661.44
2022-10-17T01:09:49.856Z,99656.22
2022-10-17T01:14:07.274Z,99668.38
2022-10-17T01:18:12.964Z,99668.38
2022-10-17T01:22:28.128Z,99665.75
2022-10-17T01:26:55.899Z,99669.25
2022-10-17T01:31:13.481Z,99666.66
2022-10-17T01:35:27.764Z,99660.56
2022-10-17T01:39:47.960Z,99668.34
2022-10-17T01:43:55.688Z,99665.75
2022-10-17T01:47:58.694Z,99659.69
2022-10-17T01:52:07.025Z,99658.84
2022-10-17T01:56:11.092Z,99658.81
2022-10-17T02:00:15.502Z,99665.72
2022-10-17T02:04:16.964Z,99661.34
2022-10-17T02:08:28.901Z,99661.34
2022-10-17T02:12:36.460Z,99655.28
2022-10-17T02:16:43.261Z,99658.78
2022-10-17T02:21:00.921Z,99649.13
2022-10-17T02:25:21.404Z,99658.63
2022-10-17T02:29:27.259Z,99652.47
2022-10-17T02:33:34.531Z,99656.00
2022-10-17T02:37:36.353Z,99659.50
2022-10-17T02:41:38.622Z,99666.47
2022-10-17T02:45:40.340Z,99667.34
2022-10-17T02:49:44.348Z,99665.59
2022-10-17T02:54:08.512Z,99665.63
2022-10-17T02:58:22.178Z,99659.56
2022-10-17T03:02:23.485Z,99661.31
2022-10-17T03:06:24.744Z,99645.72
2022-10-17T03:10:26.687Z,99650.13
2022-10-17T03:14:27.932Z,99655.38
2022-10-17T03:18:30.031Z,99663.22
2022-10-17T03:22:32.001Z,99664.13
2022-10-17T03:26:33.588Z,99668.50
2022-10-17T03:30:34.864Z,99674.53
2022-10-17T03:34:36.271Z,99674.56
2022-10-17T03:38:37.980Z,99679.78
2022-10-17T03:42:39.372Z,99687.59
2022-10-17T03:46:40.617Z,99685.00
2022-10-17T03:50:43.141Z,99690.22
2022-10-17T03:54:44.488Z,99690.25
2022-10-17T03:58:45.840Z,99702.41
2022-10-17T04:02:47.109Z,99702.44
2022-10-17T04:06:48.451Z,99696.38
2022-10-17T04:10:49.691Z,99698.13
2022-10-17T04:14:52.185Z,99685.97
2022-10-17T04:18:55.199Z,99697.28
2022-10-17T04:22:56.885Z,99694.66
2022-10-17T04:26:58.149Z,99696.47
2022-10-17T04:31:06.648Z,99698.19
2022-10-17T04:35:08.198Z,99707.72
2022-10-17T04:39:10.249Z,99716.44
2022-10-17T04:43:11.561Z,99712.13
2022-10-17T04:47:12.853Z,99726.00
2022-10-17T04:51:15.304Z,99716.44
2022-10-17T04:55:16.586Z,99719.06
2022-10-17T04:59:18.942Z,99716.50
2022-10-17T05:03:20.616Z,99725.19
2022-10-17T05:07:22.152Z,99715.69
2022-10-17T05:11:27.649Z,99733.88
2022-10-17T05:15:29.058Z,99729.53
2022-10-17T05:19:30.372Z,99730.44
2022-10-17T05:23:31.685Z,99726.09
2022-10-17T05:27:33.113Z,99721.78
2022-10-17T05:31:34.425Z,99735.66
2022-10-17T05:35:38.844Z,99729.56
2022-10-17T05:39:40.564Z,99726.97
2022-10-17T05:43:41.842Z,99731.28
2022-10-17T05:47:43.248Z,99732.16
2022-10-17T05:51:44.588Z,99735.63
2022-10-17T05:55:45.832Z,99745.13
2022-10-17T05:59:47.114Z,99740.75
2022-10-17T06:03:48.380Z,99739.00
2022-10-17T06:07:52.405Z,99740.69
2022-10-17T06:11:53.804Z,99760.66
2022-10-17T06:15:55.335Z,99763.22
2022-10-17T06:19:57.332Z,99769.28
2022-10-17T06:23:58.637Z,99771.81
2022-10-17T06:27:59.969Z,99782.97
2022-10-17T06:32:01.450Z,99781.84
2022-10-17T06:36:03.604Z,99794.72
2022-10-17T06:40:05.256Z,99803.22
2022-10-17T06:44:11.016Z,99807.44
2022-10-17T06:48:12.523Z,99809.84
2022-10-17T06:52:14.685Z,99816.63
2022-10-17T06:56:16.344Z,99824.28
2022-10-17T07:00:17.723Z,99827.59
2022-10-17T07:04:19.057Z,99833.44
2022-10-17T07:08:20.525Z,99828.84
2022-10-17T07:12:22.345Z,99835.59
2022-10-17T07:16:23.687Z,99839.75
2022-10-17T07:20:25.501Z,99851.72
2022-10-17T07:24:26.862Z,99853.16
2022-10-17T07:28:28.946Z,99849.34
2022-10-17T07:32:30.238Z,99861.25
2022-10-17T07:36:31.665Z,99851.31
2022-10-17T07:40:32.916Z,99857.00
2022-10-17T07:44:35.428Z,99865.34
2022-10-17T07:48:37.080Z,99864.88
2022-10-17T07:52:38.386Z,99871.38
2022-10-17T07:56:39.756Z,99875.94
2022-10-17T08:00:41.235Z,99876.84
2022-10-17T08:04:42.625Z,99873.31
2022-10-17T08:08:44.751Z,99882.97
2022-10-17T08:12:46.084Z,99874.31
2022-10-17T08:16:47.366Z,99873.56
2022-10-17T08:20:48.654Z,99881.56
2022-10-17T08:24:50.030Z,99889.00
2022-10-17T08:28:51.490Z,99888.56
2022-10-17T08:32:53.297Z,99889.16
2022-10-17T08:36:54.655Z,99888.97
2022-10-17T08:40:59.926Z,99895.41
2022-10-17T08:45:14.631Z,99888.84
2022-10-17T08:49:30.746Z,99889.50
2022-10-17T08:53:36.810Z,99891.38
2022-10-17T08:57:38.140Z,99903.69
2022-10-17T09:01:59.680Z,99913.69
2022-10-17T09:06:25.119Z,99907.53
2022-10-17T09:10:26.414Z,99913.25
2022-10-17T09:14:44.835Z,99920.72
2022-10-17T09:18:48.176Z,99929.84
2022-10-17T09:22:50.107Z,99929.09
2022-10-17T09:26:52.622Z,99930.44
2022-10-17T09:31:02.161Z,99935.66
2022-10-17T09:35:03.759Z,99932.53
2022-10-17T09:39:07.568Z,99937.38
2022-10-17T09:43:11.319Z,99934.31
2022-10-17T09:47:12.558Z,99952.53
2022-10-17T09:51:15.098Z,99953.03
2022-10-17T09:55:29.579Z,99953.53
2022-10-17T09:59:41.699Z,99956.31
2022-10-17T10:03:43.117Z,99960.09
2022-10-17T10:07:59.653Z,99955.16
2022-10-17T10:12:03.242Z,99979.00
2022-10-17T10:16:24.150Z,99974.78
2022-10-17T10:20:25.449Z,99977.34
2022-10-17T10:24:30.779Z,99978.19
2022-10-17T10:28:36.364Z,99975.53
2022-10-17T10:32:37.811Z,99982.91
2022-10-17T10:36:47.778Z,99970.03
2022-10-17T10:40:54.300Z,99980.22
2022-10-17T10:44:59.712Z,99985.38
2022-10-17T10:49:01.761Z,100000.13
2022-10-17T10:53:10.021Z,99992.09
2022-10-17T10:57:19.844Z,100003.75
2022-10-17T11:01:21.189Z,99997.75
2022-10-17T11:05:34.886Z,99999.38
2022-10-17T11:09:45.018Z,99999.72
2022-10-17T11:14:00.413Z,99994.81
2022-10-17T11:18:20.686Z,99994.88
2022-10-17T11:22:31.397Z,99998.88
2022-10-17T11:26:35.909Z,99985.53
2022-10-17T11:34:53.678Z,99988.03
2022-10-17T11:38:54.937Z,99995.31
2022-10-17T11:43:00.683Z,99987.53
2022-10-17T11:47:10.537Z,99993.41
2022-10-17T11:55:38.182Z,99994.88
2022-10-17T11:59:59.388Z,100004.63
2022-10-17T12:04:19.477Z,99992.81
2022-10-17T12:08:29.208Z,99995.00
2022-10-17T12:12:34.211Z,99996.38
2022-10-17T12:16:35.586Z,99989.81
2022-10-17T12:20:37.421Z,99993.41
2022-10-17T12:24:41.257Z,100001.09
2022-10-17T12:28:46.755Z,100000.22
2022-10-17T12:33:06.558Z,99997.59
2022-10-17T12:37:11.033Z,100002.44
2022-10-17T12:41:12.625Z,99996.50
2022-10-17T12:45:32.740Z,100004.63
2022-10-17T12:49:37.120Z,100008.34
2022-10-17T12:53:41.390Z,100009.78
2022-10-17T12:57:42.644Z,100001.59
2022-10-17T13:01:46.441Z,100001.97
2022-10-17T13:05:49.937Z,100009.00
2022-10-17T13:09:51.483Z,100010.53
2022-10-17T13:13:56.582Z,100002.06
2022-10-17T13:17:59.296Z,99997.84
2022-10-17T13:22:06.744Z,99997.13
2022-10-17T13:26:17.584Z,99996.03
2022-10-17T13:30:21.645Z,100006.13
2022-10-17T13:34:24.061Z,100004.00
2022-10-17T13:38:27.505Z,99998.06
2022-10-17T13:42:36.405Z,100001.69
2022-10-17T13:46:39.706Z,100006.72
2022-10-17T13:50:45.202Z,100008.28
2022-10-17T13:54:48.361Z,100012.28
2022-10-17T13:58:51.105Z,100009.84
2022-10-17T14:02:52.411Z,100012.34
2022-10-17T14:06:53.720Z,100007.06
2022-10-17T14:10:55.141Z,100012.63
2022-10-17T14:15:12.430Z,100005.16
2022-10-17T14:19:26.029Z,100012.84
2022-10-17T14:23:32.582Z,100012.38
2022-10-17T14:27:39.585Z,100018.59
2022-10-17T14:31:41.557Z,100008.44
2022-10-17T14:35:50.212Z,100010.09
2022-10-17T14:39:51.728Z,100020.03
2022-10-17T14:43:54.538Z,100012.97
2022-10-17T14:47:59.693Z,100016.59
2022-10-17T14:52:25.071Z,100015.16
2022-10-17T14:56:27.538Z,100018.59
2022-10-17T15:00:28.897Z,100028.97
2022-10-17T15:04:30.144Z,100025.31
2022-10-17T15:08:31.488Z,100036.97
2022-10-17T15:12:32.954Z,100045.44
2022-10-17T15:16:37.164Z,100061.84
2022-10-17T15:20:39.193Z,100060.81
2022-10-17T15:24:40.584Z,100061.06
2022-10-17T15:28:41.938Z,100065.03
2022-10-17T15:32:43.346Z,100059.28
2022-10-17T15:36:48.760Z,100058.00
2022-10-17T15:40:51.881Z,100050.56
2022-10-17T15:44:53.229Z,100058.00
2022-10-17T15:48:55.177Z,100063.50
2022-10-17T15:52:56.557Z,100055.25
2022-10-17T15:56:57.900Z,100064.66
2022-10-17T16:00:59.341Z,100065.94
2022-10-17T16:05:00.775Z,100059.50
2022-10-17T16:09:02.076Z,100069.59
2022-10-17T16:13:03.423Z,100071.66
2022-10-17T16:17:04.833Z,100063.03
2022-10-17T16:21:06.572Z,100063.25
2022-10-17T16:25:19.209Z,100069.53
2022-10-17T16:29:20.537Z,100071.66
2022-10-17T16:33:22.009Z,100068.28
2022-10-17T16:37:23.731Z,100072.94
2022-10-17T16:41:35.617Z,100072.25
2022-10-17T16:45:37.057Z,100083.94
2022-10-17T16:49:40.475Z,100087.47
2022-10-17T16:53:45.222Z,100094.69
2022-10-17T16:57:48.446Z,100091.31
2022-10-17T17:01:50.119Z,100100.25
2022-10-17T17:05:51.921Z,100105.75
2022-10-17T17:09:53.726Z,100114.69
2022-10-17T17:13:56.051Z,100114.03
2022-10-17T17:18:00.328Z,100110.69
2022-10-17T17:22:04.050Z,100112.47
2022-10-17T17:26:08.338Z,100106.47
2022-10-17T17:30:10.053Z,100118.94
2022-10-17T17:34:14.266Z,100129.53
2022-10-17T17:38:18.508Z,100136.66
2022-10-17T17:42:19.762Z,100136.78
2022-10-17T17:46:21.706Z,100130.66
2022-10-17T17:50:23.017Z,100146.41
2022-10-17T17:54:24.301Z,100143.91
2022-10-17T17:58:25.761Z,100145.72
2022-10-17T18:02:27.080Z,100150.19
2022-10-17T18:06:29.039Z,100157.28
2022-10-17T18:10:30.340Z,100153.88
2022-10-17T18:14:31.873Z,100157.44
2022-10-17T18:18:33.275Z,100164.47
2022-10-17T18:22:35.680Z,100157.53
2022-10-17T18:26:37.018Z,100158.47
2022-10-17T18:30:40.273Z,100162.00
2022-10-17T18:34:42.020Z,100163.88
2022-10-17T18:38:43.535Z,100156.09
2022-10-17T18:42:44.789Z,100164.03
2022-10-17T18:46:46.874Z,100172.88
2022-10-17T18:50:48.216Z,100167.75
2022-10-17T18:54:49.505Z,100163.34
2022-10-17T18:58:51.217Z,100162.34
2022-10-17T19:02:52.507Z,100159.66
2022-10-17T19:06:53.941Z,100158.00
2022-10-17T19:10:55.273Z,100150.16
2022-10-17T19:14:57.286Z,100144.91
2022-10-17T19:19:01.729Z,100138.84
2022-10-17T19:23:03.151Z,100135.47
2022-10-17T19:27:06.732Z,100127.59
2022-10-17T19:31:08.449Z,100134.69
2022-10-17T19:35:11.421Z,100132.13
2022-10-17T19:39:14.612Z,100135.75
2022-10-17T19:43:16.072Z,100134.94
2022-10-17T19:47:17.325Z,100140.25
2022-10-17T19:51:20.892Z,100135.03
2022-10-17T19:55:22.271Z,100133.38
2022-10-17T20:03:29.781Z,100131.75
2022-10-17T20:07:31.120Z,100140.50
2022-10-17T20:11:32.453Z,100130.03
2022-10-17T20:15:33.796Z,100126.53
2022-10-17T20:19:35.042Z,100129.19
2022-10-17T20:23:36.828Z,100124.88
2022-10-17T20:27:38.197Z,100138.94
2022-10-17T20:31:40.348Z,100138.09
2022-10-17T20:35:43.045Z,100152.22
2022-10-17T20:39:44.620Z,100149.63
2022-10-17T20:43:46.105Z,100154.94
2022-10-17T20:47:52.311Z,100164.59
2022-10-17T20:51:53.969Z,100160.28
2022-10-17T20:56:06.004Z,100159.47
2022-10-17T21:00:07.755Z,100163.91
2022-10-17T21:08:30.638Z,100162.19
2022-10-17T21:12:49.966Z,100162.25
2022-10-17T21:16:53.871Z,100157.00
2022-10-17T21:20:55.173Z,100171.03
2022-10-17T21:24:56.852Z,100165.00
2022-10-17T21:28:59.617Z,100165.91
2022-10-17T21:33:00.902Z,100167.72
2022-10-17T21:37:02.486Z,100168.56
2022-10-17T21:41:04.712Z,100158.09
2022-10-17T21:45:15.205Z,100159.91
2022-10-17T21:49:18.578Z,100150.28
2022-10-17T21:53:21.009Z,100145.03
2022-10-17T21:57:22.327Z,100156.44
2022-10-17T22:01:24.950Z,100153.88
2022-10-17T22:05:26.316Z,100151.28
2022-10-17T22:09:27.815Z,100146.97
2022-10-17T22:13:29.137Z,100150.44
2022-10-17T22:17:30.663Z,100160.06
2022-10-17T22:21:33.404Z,100148.66
2022-10-17T22:25:34.967Z,100141.66
2022-10-17T22:29:36.320Z,100153.91
2022-10-17T22:33:38.569Z,100144.34
2022-10-17T22:37:39.829Z,100143.53
2022-10-17T22:41:41.127Z,100143.56
2022-10-17T22:45:42.381Z,100154.16
2022-10-17T22:49:43.965Z,100149.78
2022-10-17T22:53:45.254Z,100139.19
2022-10-17T22:57:46.561Z,100125.97
2022-10-17T23:01:47.913Z,100115.41
2022-10-17T23:05:49.477Z,100117.16
2022-10-17T23:09:51.083Z,100128.53
2022-10-17T23:13:52.612Z,100130.41
2022-10-17T23:17:53.972Z,100121.69
2022-10-17T23:21:55.280Z,100105.03
2022-10-17T23:26:03.321Z,100104.22
2022-10-17T23:30:04.971Z,100107.03
2022-10-17T23:34:06.618Z,100101.88
2022-10-17T23:38:08.181Z,100101.06
2022-10-17T23:42:09.448Z,100102.94
2022-10-17T23:46:10.792Z,100102.97
2022-10-17T23:50:12.137Z,100095.19
2022-10-17T23:54:13.856Z,100093.44
2022-10-17T23:58:15.124Z,100091.78
